SondeTracker

Meteorological Radiosondes Database

Operations

Sounding was ended - last measurement: 2022-12-06 00:56:39z

MAP
About Radiosonde

Number: D22043862 ([BC]22043862)

Launch Site: Albuquerque [NM] (US)

Type: DFM

AUX: NO

Frequency: MHz

Max Speed: 198 km/h at 11710 m

Average Speed: 127.89 km/h

Max Altitude: 30483 m

Average Ascent Speed: 5.75 m/s

Average Descent Speed: 10.32 m/s

Status: UNKNOWN

Status Changes
Launch Site Type AUX Frequency Status Finder Landing Point Description Changes made by
APRS Statistics

Received Frames: 45

First Frame [UTC]: 2022-12-05 23:28:04z

Last Frame [UTC]: 2022-12-06 00:56:39z

Receivers: KB5VL-14

Flight Time: 01:28:35 h

Distance From First Measurement: 162.48 km

Nearest City: Las Vegas [NM] (US) [94.19 km]

Nearest Hunter: [0.00 km]

Ground Altitude: 1381 m

Distance from QTH: 0.00 km

APRS Data
Receiver Number Date/Time [UTC] φ λ Course [°] Speed [km/h] Altitude [m] Description
KB5VL-14D220438622022-12-06 00:56:3935.2591-104.27701569529Clb=-8.6m/s Type=DFM17 ser=[BC]22043862 Details on http://radiosondy.info
KB5VL-14D220438622022-12-06 00:53:1535.2409-104.337115910620Clb=-7.5m/s Type=DFM17 ser=[BC]22043862 Details on http://radiosondy.info
KB5VL-14D220438622022-12-06 00:52:5335.2387-104.3376916710730Clb=-7.2m/s Type=DFM17 ser=[BC]22043862 Details on http://radiosondy.info
KB5VL-14D220438622022-12-06 00:39:0535.1552-104.7749014118067Clb=-9.9m/s Type=DFM17 ser=[BC]22043862 Details on http://radiosondy.info
KB5VL-14D220438622022-12-06 00:38:3735.1556-104.7819913518218Clb=-10.1m/s Type=DFM17 ser=[BC]22043862 Details on http://radiosondy.info
KB5VL-14D220438622022-12-06 00:38:1135.1565-104.7871017818373Clb=-10.3m/s Type=DFM17 ser=[BC]22043862 Details on http://radiosondy.info
KB5VL-14D220438622022-12-06 00:34:3935.1575-104.812686320132Clb=-13.6m/s Type=DFM17 ser=[BC]22043862 Details on http://radiosondy.info
KB5VL-14D220438622022-12-06 00:34:2735.1569-104.815846320342Clb=-13.9m/s Type=DFM17 ser=[BC]22043862 Details on http://radiosondy.info
KB5VL-14D220438622022-12-06 00:34:1135.1569-104.818946520551Clb=-13.9m/s Type=DFM17 ser=[BC]22043862 Details on http://radiosondy.info
KB5VL-14D220438622022-12-06 00:33:5435.1572-104.8211025720760Clb=-13.7m/s Type=DFM17 ser=[BC]22043862 Details on http://radiosondy.info
KB5VL-14D220438622022-12-06 00:22:4835.1937-105.08611310430483Clb=3.6m/s Type=DFM17 ser=[BC]22043862 Details on http://radiosondy.info
KB5VL-14D220438622022-12-06 00:22:1435.1955-105.09310312030387Clb=8.5m/s Type=DFM17 ser=[BC]22043862 Details on http://radiosondy.info
KB5VL-14D220438622022-12-06 00:21:4335.1968-105.0991209430280Clb=3.5m/s Type=DFM17 ser=[BC]22043862 Details on http://radiosondy.info
KB5VL-14D220438622022-12-06 00:17:0835.2009-105.14810110029425Clb=5.2m/s Type=DFM17 ser=[BC]22043862 Details on http://radiosondy.info
KB5VL-14D220438622022-12-06 00:16:3835.2013-105.1539210629296Clb=6.1m/s Type=DFM17 ser=[BC]22043862 Details on http://radiosondy.info
KB5VL-14D220438622022-12-06 00:16:0735.2016-105.15810210029185Clb=4.8m/s Type=DFM17 ser=[BC]22043862 Details on http://radiosondy.info
KB5VL-14D220438622022-12-06 00:13:0135.2132-105.2511228926991Clb=5.3m/s Type=DFM17 ser=[BC]22043862 Details on http://radiosondy.info
KB5VL-14D220438622022-12-06 00:12:5935.2174-105.2629911526754Clb=7.8m/s Type=DFM17 ser=[BC]22043862 Details on http://radiosondy.info
KB5VL-14D220438622022-12-06 00:10:1035.2252-105.3068111125773Clb=7.0m/s Type=DFM17 ser=[BC]22043862 Details on http://radiosondy.info
KB5VL-14D220438622022-12-06 00:09:4135.2248-105.31929425648Clb=5.4m/s Type=DFM17 ser=[BC]22043862 Details on http://radiosondy.info
KB5VL-14D220438622022-12-06 00:09:0935.2249-105.3151056525543Clb=8.4m/s Type=DFM17 ser=[BC]22043862 Details on http://radiosondy.info
KB5VL-14D220438622022-12-06 00:00:3335.2486-105.407915622432Clb=5.7m/s Type=DFM17 ser=[BC]22043862 Details on http://radiosondy.info
KB5VL-14D220438622022-12-06 00:00:3235.2486-105.4099810222357Clb=7.0m/s Type=DFM17 ser=[BC]22043862 Details on http://radiosondy.info
KB5VL-14D220438622022-12-05 23:46:4535.271-105.5698112217995Clb=3.7m/s Type=DFM17 ser=[BC]22043862 Details on http://radiosondy.info
KB5VL-14D220438622022-12-05 23:43:4435.263-105.6147411117245Clb=6.4m/s Type=DFM17 ser=[BC]22043862 Details on http://radiosondy.info
KB5VL-14D220438622022-12-05 23:43:2535.2616-105.627411717158Clb=5.4m/s Type=DFM17 ser=[BC]22043862 Details on http://radiosondy.info
KB5VL-14D220438622022-12-05 23:43:1035.2602-105.6257412417043Clb=6.7m/s Type=DFM17 ser=[BC]22043862 Details on http://radiosondy.info
KB5VL-14D220438622022-12-05 23:42:5335.2584-105.6316612216977Clb=4.3m/s Type=DFM17 ser=[BC]22043862 Details on http://radiosondy.info
KB5VL-14D220438622022-12-05 23:41:0935.2487-105.6787513716307Clb=4.4m/s Type=DFM17 ser=[BC]22043862 Details on http://radiosondy.info
KB5VL-14D220438622022-12-05 23:40:4735.2471-105.6847213716233Clb=6.5m/s Type=DFM17 ser=[BC]22043862 Details on http://radiosondy.info
KB5VL-14D220438622022-12-05 23:40:2435.2456-105.697513116153Clb=6.7m/s Type=DFM17 ser=[BC]22043862 Details on http://radiosondy.info
KB5VL-14D220438622022-12-05 23:40:0435.2442-105.6967514316031Clb=5.3m/s Type=DFM17 ser=[BC]22043862 Details on http://radiosondy.info
KB5VL-14D220438622022-12-05 23:37:5835.231-105.7617314615162Clb=7.3m/s Type=DFM17 ser=[BC]22043862 Details on http://radiosondy.info
KB5VL-14D220438622022-12-05 23:37:5635.23-105.7687815615051Clb=9.7m/s Type=DFM17 ser=[BC]22043862 Details on http://radiosondy.info
KB5VL-14D220438622022-12-05 23:37:4035.2287-105.7757515914944Clb=5.0m/s Type=DFM17 ser=[BC]22043862 Details on http://radiosondy.info
KB5VL-14D220438622022-12-05 23:37:1635.2273-105.7827816114847Clb=7.0m/s Type=DFM17 ser=[BC]22043862 Details on http://radiosondy.info
KB5VL-14D220438622022-12-05 23:34:3835.2147-105.8457816914090Clb=6.9m/s Type=DFM17 ser=[BC]22043862 Details on http://radiosondy.info
KB5VL-14D220438622022-12-05 23:34:2335.2131-105.8527216914006Clb=9.4m/s Type=DFM17 ser=[BC]22043862 Details on http://radiosondy.info
KB5VL-14D220438622022-12-05 23:31:3835.1947-105.9347317213003Clb=7.2m/s Type=DFM17 ser=[BC]22043862 Details on http://radiosondy.info
KB5VL-14D220438622022-12-05 23:31:2335.1928-105.9427517612911Clb=3.8m/s Type=DFM17 ser=[BC]22043862 Details on http://radiosondy.info
KB5VL-14D220438622022-12-05 23:31:0835.1911-105.9497217612829Clb=2.0m/s Type=DFM17 ser=[BC]22043862 Details on http://radiosondy.info
KB5VL-14D220438622022-12-05 23:30:5335.1895-105.9578019812746Clb=4.4m/s Type=DFM17 ser=[BC]22043862 Details on http://radiosondy.info
KB5VL-14D220438622022-12-05 23:28:4235.1721-106.0377519811819Clb=8.2m/s Type=DFM Details on http://radiosondy.info
KB5VL-14D220438622022-12-05 23:28:2335.1701-106.0467419811710Clb=5.1m/s Type=DFM Details on http://radiosondy.info
KB5VL-14D220438622022-12-05 23:28:0435.1682-106.0557819311600Clb=6.2m/s Type=DFM Details on http://radiosondy.info